createdAt,value
2022-09-12T00:00:08.333Z,83.22
2022-09-12T00:02:34.891Z,82.90
2022-09-12T00:05:01.428Z,82.94
2022-09-12T00:07:28.064Z,82.68
2022-09-12T00:09:54.705Z,82.76
2022-09-12T00:12:21.263Z,82.78
2022-09-12T00:14:47.805Z,82.88
2022-09-12T00:17:14.380Z,82.91
2022-09-12T00:19:40.885Z,82.92
2022-09-12T00:22:07.800Z,83.11
2022-09-12T00:24:34.448Z,83.03
2022-09-12T00:27:01.021Z,82.62
2022-09-12T00:29:27.611Z,82.61
2022-09-12T00:31:54.149Z,82.44
2022-09-12T00:34:20.701Z,82.81
2022-09-12T00:36:47.381Z,82.93
2022-09-12T00:39:16.942Z,82.64
2022-09-12T00:41:44.728Z,83.10
2022-09-12T00:44:12.275Z,82.81
2022-09-12T00:46:48.100Z,82.61
2022-09-12T00:49:15.586Z,82.53
2022-09-12T00:51:47.229Z,82.24
2022-09-12T00:54:19.330Z,82.44
2022-09-12T00:56:49.096Z,82.44
2022-09-12T00:59:21.710Z,82.19
2022-09-12T01:01:51.191Z,82.31
2022-09-12T01:04:22.143Z,82.57
2022-09-12T01:06:51.894Z,82.92
2022-09-12T01:09:21.815Z,82.31
2022-09-12T01:11:50.480Z,82.14
2022-09-12T01:14:18.089Z,82.28
2022-09-12T01:16:46.371Z,82.22
2022-09-12T01:19:40.652Z,82.64
2022-09-12T01:22:07.119Z,82.47
2022-09-12T01:25:07.783Z,82.33
2022-09-12T01:27:49.149Z,82.27
2022-09-12T01:30:24.093Z,82.22
2022-09-12T01:33:10.172Z,81.98
2022-09-12T01:35:56.743Z,82.29
2022-09-12T01:38:31.449Z,82.60
2022-09-12T01:41:09.056Z,82.71
2022-09-12T01:43:56.208Z,82.54
2022-09-12T01:46:49.792Z,82.42
2022-09-12T01:49:23.176Z,82.48
2022-09-12T01:52:20.548Z,82.62
2022-09-12T01:54:53.400Z,82.55
2022-09-12T01:57:39.302Z,82.30
2022-09-12T02:00:10.283Z,82.72
2022-09-12T02:02:39.488Z,82.46
2022-09-12T02:05:10.926Z,82.77
2022-09-12T02:07:44.034Z,82.47
2022-09-12T02:10:19.668Z,82.80
2022-09-12T02:12:52.005Z,82.48
2022-09-12T02:15:23.953Z,82.45
2022-09-12T02:17:52.493Z,82.84
2022-09-12T02:20:37.471Z,82.78
2022-09-12T02:23:15.863Z,82.75
2022-09-12T02:25:47.167Z,82.69
2022-09-12T02:28:27.364Z,82.65
2022-09-12T02:31:23.565Z,82.48
2022-09-12T02:33:50.068Z,82.39
2022-09-12T02:36:28.782Z,82.27
2022-09-12T02:38:55.752Z,82.44
2022-09-12T02:41:23.257Z,82.73
2022-09-12T02:43:51.871Z,82.63
2022-09-12T02:46:23.563Z,82.77
2022-09-12T02:48:50.169Z,82.69
2022-09-12T02:51:20.389Z,82.68
2022-09-12T02:53:49.644Z,82.73
2022-09-12T02:56:24.153Z,82.81
2022-09-12T02:58:51.411Z,83.04
2022-09-12T03:01:40.354Z,82.51
2022-09-12T03:04:22.050Z,82.66
2022-09-12T03:07:21.806Z,82.57
2022-09-12T03:10:14.991Z,82.58
2022-09-12T03:13:02.079Z,82.58
2022-09-12T03:15:54.646Z,83.04
2022-09-12T03:18:35.744Z,82.75
2022-09-12T03:21:17.512Z,83.10
2022-09-12T03:24:04.404Z,82.95
2022-09-12T03:26:35.180Z,82.96
2022-09-12T03:29:06.482Z,83.23
2022-09-12T03:31:33.429Z,82.90
2022-09-12T03:34:00.651Z,82.93
2022-09-12T03:36:29.571Z,82.97
2022-09-12T03:38:56.660Z,82.64
2022-09-12T03:41:23.237Z,83.11
2022-09-12T03:43:49.918Z,82.98
2022-09-12T03:46:16.630Z,82.69
2022-09-12T03:48:43.276Z,82.72
2022-09-12T03:51:10.764Z,83.09
2022-09-12T03:54:08.555Z,82.92
2022-09-12T03:56:26.178Z,82.90
2022-09-12T03:58:52.915Z,83.00
2022-09-12T04:01:20.168Z,82.95
2022-09-12T04:03:52.523Z,82.93
2022-09-12T04:06:23.001Z,82.84
2022-09-12T04:08:52.001Z,82.92
2022-09-12T04:11:22.485Z,83.08
2022-09-12T04:13:49.271Z,82.81
2022-09-12T04:16:16.806Z,83.48
2022-09-12T04:18:44.091Z,83.28
2022-09-12T04:21:15.685Z,83.30
2022-09-12T04:23:43.023Z,83.37
2022-09-12T04:26:12.972Z,83.43
2022-09-12T04:28:40.128Z,83.50
2022-09-12T04:31:13.927Z,83.43
2022-09-12T04:33:40.569Z,83.63
2022-09-12T04:36:10.764Z,83.74
2022-09-12T04:38:38.607Z,83.40
2022-09-12T04:41:14.246Z,83.81
2022-09-12T04:43:41.172Z,84.17
2022-09-12T04:46:09.286Z,84.13
2022-09-12T04:48:39.002Z,83.61
2022-09-12T04:51:09.689Z,83.96
2022-09-12T04:53:37.197Z,83.48
2022-09-12T04:56:06.979Z,84.00
2022-09-12T04:58:34.323Z,83.92
2022-09-12T05:01:21.246Z,84.11
2022-09-12T05:03:48.837Z,84.07
2022-09-12T05:06:19.008Z,84.46
2022-09-12T05:08:46.144Z,84.31
2022-09-12T05:11:16.297Z,84.39
2022-09-12T05:13:43.778Z,84.34
2022-09-12T05:16:12.690Z,84.53
2022-09-12T05:18:39.460Z,84.85
2022-09-12T05:21:09.317Z,84.46
2022-09-12T05:23:35.962Z,84.50
2022-09-12T05:26:04.712Z,84.82
2022-09-12T05:28:34.416Z,84.58
2022-09-12T05:31:11.910Z,84.67
2022-09-12T05:34:11.837Z,84.50
2022-09-12T05:36:38.700Z,84.55
2022-09-12T05:39:05.348Z,85.16
2022-09-12T05:41:33.837Z,84.96
2022-09-12T05:44:03.156Z,84.81
2022-09-12T05:46:42.685Z,84.93
2022-09-12T05:49:36.308Z,84.81
2022-09-12T05:53:25.115Z,84.64
2022-09-12T05:55:17.241Z,85.24
2022-09-12T06:00:55.474Z,84.95
2022-09-12T06:13:59.500Z,85.12
2022-09-12T06:29:21.178Z,85.40
2022-09-12T06:31:47.691Z,85.58
2022-09-12T06:39:48.878Z,85.02
2022-09-12T06:45:00.835Z,85.03
2022-09-12T06:47:28.323Z,84.98
2022-09-12T06:50:28.113Z,84.99
2022-09-12T06:52:45.428Z,85.38
2022-09-12T06:55:48.253Z,85.50
2022-09-12T07:16:52.636Z,84.12
2022-09-12T07:19:19.238Z,83.88
2022-09-12T07:21:45.786Z,83.96
2022-09-12T07:24:12.253Z,84.25
2022-09-12T07:26:41.536Z,84.37
2022-09-12T07:32:02.058Z,84.95
2022-09-12T07:34:28.541Z,84.62
2022-09-12T07:36:54.978Z,84.28
2022-09-12T07:39:21.380Z,84.50
2022-09-12T07:41:48.199Z,84.36
2022-09-12T07:44:14.790Z,84.23
2022-09-12T07:46:41.250Z,84.45
2022-09-12T07:49:08.528Z,84.78
2022-09-12T07:51:35.152Z,84.09
2022-09-12T07:54:01.592Z,84.14
2022-09-12T07:56:31.073Z,84.06
2022-09-12T07:58:58.923Z,83.69
2022-09-12T08:01:25.748Z,83.95
2022-09-12T08:03:56.928Z,82.97
2022-09-12T08:06:24.340Z,83.88
2022-09-12T08:08:52.560Z,84.21
2022-09-12T08:11:21.098Z,82.66
2022-09-12T08:13:52.953Z,82.84
2022-09-12T08:16:23.597Z,82.72
2022-09-12T08:18:51.392Z,82.60
2022-09-12T08:21:21.332Z,83.61
2022-09-12T08:23:52.667Z,83.21
2022-09-12T08:26:19.480Z,83.14
2022-09-12T08:28:46.327Z,83.37
2022-09-12T08:31:15.426Z,82.68
2022-09-12T08:33:42.275Z,82.83
2022-09-12T08:36:12.350Z,83.01
2022-09-12T08:38:41.882Z,82.85
2022-09-12T08:41:13.401Z,82.26
2022-09-12T08:43:56.958Z,82.36
2022-09-12T08:46:36.089Z,82.53
2022-09-12T08:49:04.320Z,82.08
2022-09-12T08:51:34.685Z,81.91
2022-09-12T08:54:03.723Z,81.83
2022-09-12T08:56:36.198Z,81.87
2022-09-12T08:59:03.225Z,82.66
2022-09-12T09:01:32.796Z,82.68
2022-09-12T09:04:16.088Z,82.64
2022-09-12T09:07:04.976Z,82.47
2022-09-12T09:09:54.767Z,81.96
2022-09-12T09:12:27.190Z,82.10
2022-09-12T09:15:22.070Z,81.33
2022-09-12T09:22:13.489Z,81.85
2022-09-12T09:24:51.892Z,80.45
2022-09-12T09:30:22.964Z,80.69
2022-09-12T09:33:38.938Z,80.70
2022-09-12T09:37:01.423Z,80.34
2022-09-12T09:39:39.673Z,80.80
2022-09-12T09:42:23.123Z,80.28
2022-09-12T09:44:52.927Z,79.39
2022-09-12T09:47:19.894Z,79.96
2022-09-12T09:49:47.646Z,79.34
2022-09-12T09:52:39.950Z,78.56
2022-09-12T09:55:18.178Z,78.98
2022-09-12T10:01:01.705Z,79.02
2022-09-12T10:03:32.690Z,78.25
2022-09-12T10:10:15.590Z,77.86
2022-09-12T10:12:42.291Z,78.17
2022-09-12T10:15:28.507Z,77.99
2022-09-12T10:17:56.711Z,76.47
2022-09-12T10:20:33.368Z,75.89
2022-09-12T10:23:48.566Z,76.47
2022-09-12T10:26:19.560Z,76.20
2022-09-12T10:28:54.093Z,75.72
2022-09-12T10:31:29.555Z,76.89
2022-09-12T10:34:22.361Z,77.14
2022-09-12T10:40:56.749Z,75.50
2022-09-12T10:43:54.277Z,74.04
2022-09-12T10:47:03.458Z,74.74
2022-09-12T10:56:50.722Z,73.00
2022-09-12T11:03:41.919Z,72.39
2022-09-12T11:06:29.095Z,72.71
2022-09-12T11:09:06.139Z,72.52
2022-09-12T11:12:02.244Z,72.17
2022-09-12T11:15:31.640Z,72.06
2022-09-12T11:18:24.759Z,71.03
2022-09-12T11:21:09.825Z,70.39
2022-09-12T11:24:07.649Z,69.56
2022-09-12T11:30:50.801Z,69.11
2022-09-12T11:34:05.420Z,69.40
2022-09-12T11:37:18.267Z,68.51
2022-09-12T11:43:54.499Z,66.59
2022-09-12T11:50:00.152Z,67.75
2022-09-12T11:52:59.463Z,67.02
2022-09-12T12:02:14.625Z,66.93
2022-09-12T12:06:06.787Z,65.49
2022-09-12T12:09:15.248Z,65.87
2022-09-12T12:15:59.140Z,67.86
2022-09-12T12:32:31.359Z,64.87
2022-09-12T12:35:41.347Z,65.98
2022-09-12T12:38:29.597Z,65.67
2022-09-12T12:41:17.828Z,63.99
2022-09-12T12:43:45.796Z,63.44
2022-09-12T12:46:14.716Z,64.67
2022-09-12T12:49:20.038Z,65.03
2022-09-12T12:51:57.634Z,64.98
2022-09-12T12:54:31.360Z,64.11
2022-09-12T12:57:04.879Z,62.77
2022-09-12T12:59:32.184Z,63.19
2022-09-12T13:02:00.029Z,61.54
2022-09-12T13:04:30.607Z,61.17
2022-09-12T13:07:07.189Z,61.00
2022-09-12T13:09:39.762Z,61.03
2022-09-12T13:12:10.286Z,61.42
2022-09-12T13:14:51.657Z,63.13
2022-09-12T13:17:22.729Z,61.19
2022-09-12T13:20:10.604Z,61.48
2022-09-12T13:22:42.906Z,61.31
2022-09-12T13:25:25.151Z,61.30
2022-09-12T13:28:04.065Z,61.48
2022-09-12T13:30:33.633Z,61.24
2022-09-12T13:33:10.294Z,62.33
2022-09-12T13:35:41.504Z,61.86
2022-09-12T13:38:13.209Z,62.29
2022-09-12T13:40:57.300Z,62.50
2022-09-12T13:43:40.681Z,60.38
2022-09-12T13:46:09.586Z,61.41
2022-09-12T13:48:36.317Z,62.12
2022-09-12T13:51:06.024Z,61.29
2022-09-12T13:53:47.242Z,62.05
2022-09-12T13:56:17.915Z,60.37
2022-09-12T13:58:56.910Z,60.58
2022-09-12T14:07:55.415Z,60.56
2022-09-12T14:17:37.206Z,58.23
2022-09-12T14:21:10.475Z,59.88
2022-09-12T14:51:35.235Z,60.00
2022-09-12T14:54:02.756Z,59.08
2022-09-12T14:56:55.220Z,58.24
2022-09-12T15:00:14.578Z,58.33
2022-09-12T15:05:27.954Z,59.13
2022-09-12T15:07:56.155Z,59.34
2022-09-12T15:10:33.903Z,59.89
2022-09-12T15:13:15.308Z,59.55
2022-09-12T15:15:47.037Z,59.04
2022-09-12T15:18:15.919Z,60.06
2022-09-12T15:20:44.684Z,60.43
2022-09-12T15:23:20.712Z,60.59
2022-09-12T15:25:47.754Z,60.33
2022-09-12T15:28:19.790Z,60.78
2022-09-12T15:30:50.026Z,60.59
2022-09-12T15:33:18.939Z,59.44
2022-09-12T15:35:45.956Z,60.63
2022-09-12T15:38:12.897Z,60.28
2022-09-12T15:40:40.847Z,60.08
2022-09-12T15:43:07.425Z,60.43
2022-09-12T15:45:35.458Z,60.30
2022-09-12T15:48:03.338Z,60.00
2022-09-12T15:50:30.600Z,62.02
2022-09-12T15:52:57.670Z,62.06
2022-09-12T15:55:28.709Z,61.41
2022-09-12T15:57:55.742Z,60.91
2022-09-12T16:00:22.754Z,61.15
2022-09-12T16:02:54.147Z,60.58
2022-09-12T16:05:25.153Z,60.90
2022-09-12T16:10:36.730Z,63.54
2022-09-12T16:13:04.613Z,60.91
2022-09-12T16:15:31.195Z,60.88
2022-09-12T16:17:57.724Z,60.67
2022-09-12T16:20:24.439Z,60.81
2022-09-12T16:22:50.971Z,62.18
2022-09-12T16:25:18.186Z,62.51
2022-09-12T16:27:45.117Z,62.47
2022-09-12T16:30:13.090Z,61.58
2022-09-12T16:32:39.593Z,61.51
2022-09-12T16:35:08.846Z,59.86
2022-09-12T16:37:35.490Z,63.45
2022-09-12T16:40:04.675Z,64.00
2022-09-12T16:42:31.291Z,63.68
2022-09-12T16:44:57.969Z,63.93
2022-09-12T16:47:24.497Z,65.17
2022-09-12T16:49:51.358Z,65.21
2022-09-12T16:52:19.319Z,65.95
2022-09-12T16:54:46.952Z,65.96
2022-09-12T16:57:13.487Z,65.87
2022-09-12T16:59:39.979Z,66.62
2022-09-12T17:02:07.547Z,67.03
2022-09-12T17:04:34.221Z,66.06
2022-09-12T17:07:00.802Z,65.82
2022-09-12T17:09:28.189Z,65.39
2022-09-12T17:11:55.736Z,67.14
2022-09-12T17:14:22.891Z,68.83
2022-09-12T17:16:51.981Z,68.32
2022-09-12T17:19:22.165Z,67.02
2022-09-12T17:36:05.790Z,69.03
2022-09-12T17:38:34.774Z,69.51
2022-09-12T17:41:23.619Z,70.01
2022-09-12T17:44:16.927Z,70.60
2022-09-12T17:46:43.329Z,71.45
2022-09-12T17:49:17.387Z,70.95
2022-09-12T17:51:45.297Z,72.06
2022-09-12T17:54:16.109Z,72.44
2022-09-12T17:56:44.509Z,72.62
2022-09-12T18:02:19.290Z,72.23
2022-09-12T18:04:46.996Z,73.04
2022-09-12T18:07:18.309Z,72.97
2022-09-12T18:09:47.956Z,73.51
2022-09-12T18:12:15.790Z,73.55
2022-09-12T18:14:42.799Z,73.53
2022-09-12T18:17:32.464Z,73.96
2022-09-12T18:23:05.773Z,73.74
2022-09-12T18:25:33.905Z,73.68
2022-09-12T18:28:00.617Z,73.85
2022-09-12T18:30:48.779Z,74.80
2022-09-12T18:33:23.893Z,75.28
2022-09-12T18:36:27.158Z,75.20
2022-09-12T18:38:45.023Z,74.89
2022-09-12T18:41:37.495Z,75.61
2022-09-12T18:44:05.227Z,75.91
2022-09-12T18:46:35.414Z,75.72
2022-09-12T18:49:07.847Z,76.02
2022-09-12T18:51:36.623Z,75.48
2022-09-12T18:54:06.407Z,76.30
2022-09-12T18:56:37.632Z,76.39
2022-09-12T18:59:06.273Z,76.71
2022-09-12T19:01:35.496Z,76.17
2022-09-12T19:04:05.088Z,76.37
2022-09-12T19:06:35.441Z,75.95
2022-09-12T19:09:07.332Z,75.85
2022-09-12T19:11:35.988Z,75.49
2022-09-12T19:14:03.067Z,75.64
2022-09-12T19:16:29.801Z,75.14
2022-09-12T19:18:57.235Z,75.70
2022-09-12T19:21:27.029Z,77.18
2022-09-12T19:23:57.219Z,76.09
2022-09-12T19:26:24.267Z,76.48
2022-09-12T19:28:50.955Z,77.42
2022-09-12T19:31:20.005Z,77.58
2022-09-12T19:36:47.114Z,78.17
2022-09-12T19:39:15.497Z,77.82
2022-09-12T19:41:43.855Z,76.75
2022-09-12T19:44:11.843Z,77.62
2022-09-12T19:46:38.926Z,77.59
2022-09-12T19:49:05.939Z,77.12
2022-09-12T19:51:33.911Z,77.17
2022-09-12T20:30:10.276Z,78.96
2022-09-12T20:37:25.842Z,79.40
2022-09-12T20:40:44.653Z,79.39
2022-09-12T20:48:00.228Z,79.58
2022-09-12T20:57:45.866Z,80.51
2022-09-12T21:02:32.395Z,80.14
2022-09-12T21:24:12.329Z,80.64
2022-09-12T21:27:16.459Z,81.05
2022-09-12T21:30:10.758Z,80.99
2022-09-12T21:35:24.922Z,81.12
2022-09-12T21:49:48.314Z,81.73
2022-09-12T22:04:55.916Z,81.34
2022-09-12T22:07:54.397Z,81.17
2022-09-12T23:23:15.618Z,81.24
2022-09-12T23:56:53.262Z,81.75
